createdAt,value
2019-06-27T00:00:29.108Z,23.10
2019-06-27T00:02:57.708Z,23.00
2019-06-27T00:05:26.487Z,23.00
2019-06-27T00:07:55.369Z,23.00
2019-06-27T00:10:23.867Z,23.00
2019-06-27T00:12:52.291Z,22.90
2019-06-27T00:15:20.783Z,22.90
2019-06-27T00:17:49.262Z,22.90
2019-06-27T00:20:17.855Z,22.90
2019-06-27T00:22:46.779Z,22.90
2019-06-27T00:25:15.352Z,22.90
2019-06-27T00:27:43.833Z,22.80
2019-06-27T00:30:12.720Z,22.80
2019-06-27T00:32:41.157Z,22.80
2019-06-27T00:35:09.645Z,22.90
2019-06-27T00:37:38.100Z,22.90
2019-06-27T00:40:07.333Z,23.10
2019-06-27T00:42:35.807Z,23.00
2019-06-27T00:45:05.879Z,23.00
2019-06-27T00:47:34.331Z,23.00
2019-06-27T00:50:03.411Z,22.90
2019-06-27T00:52:31.890Z,22.90
2019-06-27T00:55:00.325Z,22.80
2019-06-27T00:57:28.867Z,22.70
2019-06-27T00:59:57.291Z,22.60
2019-06-27T01:02:25.746Z,22.50
2019-06-27T01:04:54.180Z,22.40
2019-06-27T01:07:22.639Z,22.40
2019-06-27T01:09:51.145Z,22.40
2019-06-27T01:12:19.576Z,22.30
2019-06-27T01:14:48.001Z,22.40
2019-06-27T01:17:16.458Z,22.50
2019-06-27T01:19:44.940Z,22.40
2019-06-27T01:22:13.406Z,22.50
2019-06-27T01:24:41.814Z,22.40
2019-06-27T01:27:10.247Z,22.30
2019-06-27T01:29:38.722Z,22.30
2019-06-27T01:32:07.236Z,22.20
2019-06-27T01:34:35.670Z,22.20
2019-06-27T01:37:04.161Z,22.20
2019-06-27T01:39:33.242Z,22.20
2019-06-27T01:42:01.688Z,22.20
2019-06-27T01:44:40.216Z,22.10
2019-06-27T01:47:09.261Z,22.20
2019-06-27T01:49:37.679Z,22.20
2019-06-27T01:52:06.224Z,22.10
2019-06-27T01:54:34.631Z,22.10
2019-06-27T01:57:03.099Z,22.00
2019-06-27T01:59:31.642Z,22.00
2019-06-27T02:02:00.217Z,22.00
2019-06-27T02:04:29.070Z,22.00
2019-06-27T02:06:57.499Z,22.10
2019-06-27T02:09:25.994Z,22.00
2019-06-27T02:11:54.427Z,21.90
2019-06-27T02:14:22.888Z,21.80
2019-06-27T02:16:51.349Z,21.80
2019-06-27T02:19:19.810Z,21.80
2019-06-27T02:21:48.244Z,21.80
2019-06-27T02:24:16.673Z,21.80
2019-06-27T02:26:45.564Z,21.80
2019-06-27T02:29:14.020Z,21.80
2019-06-27T02:31:42.442Z,21.90
2019-06-27T02:34:10.883Z,21.90
2019-06-27T02:36:39.338Z,21.90
2019-06-27T02:39:07.750Z,21.90
2019-06-27T02:41:36.190Z,22.00
2019-06-27T02:44:04.707Z,22.10
2019-06-27T02:46:33.187Z,22.10
2019-06-27T02:49:01.626Z,22.00
2019-06-27T02:51:30.119Z,21.90
2019-06-27T02:53:58.529Z,21.80
2019-06-27T02:56:26.980Z,21.70
2019-06-27T02:58:55.394Z,21.60
2019-06-27T03:01:23.955Z,21.60
2019-06-27T03:03:52.523Z,21.60
2019-06-27T03:06:20.996Z,21.50
2019-06-27T03:08:49.503Z,21.40
2019-06-27T03:11:17.947Z,21.40
2019-06-27T03:13:46.345Z,21.50
2019-06-27T03:16:14.784Z,21.70
2019-06-27T03:18:43.265Z,21.60
2019-06-27T03:21:11.694Z,21.60
2019-06-27T03:23:40.180Z,21.70
2019-06-27T03:26:08.611Z,21.70
2019-06-27T03:28:50.889Z,21.60
2019-06-27T03:31:07.171Z,21.60
2019-06-27T03:33:35.604Z,21.60
2019-06-27T03:36:04.150Z,21.70
2019-06-27T03:38:32.651Z,21.60
2019-06-27T03:41:01.071Z,21.50
2019-06-27T03:43:29.482Z,21.50
2019-06-27T03:45:57.990Z,21.50
2019-06-27T03:48:26.438Z,21.50
2019-06-27T03:50:56.462Z,21.40
2019-06-27T03:53:25.193Z,21.40
2019-06-27T03:55:53.647Z,21.30
2019-06-27T03:58:22.074Z,21.40
2019-06-27T04:00:50.517Z,21.30
2019-06-27T04:03:18.922Z,21.40
2019-06-27T04:05:47.439Z,21.50
2019-06-27T04:08:15.868Z,21.50
2019-06-27T04:10:44.383Z,21.60
2019-06-27T04:13:12.799Z,21.60
2019-06-27T04:15:41.279Z,21.70
2019-06-27T04:18:09.685Z,21.50
2019-06-27T04:20:38.115Z,21.70
2019-06-27T04:23:06.545Z,21.70
2019-06-27T04:25:35.034Z,21.70
2019-06-27T04:28:03.621Z,21.80
2019-06-27T04:30:32.067Z,21.90
2019-06-27T04:33:00.507Z,21.90
2019-06-27T04:35:28.924Z,21.90
2019-06-27T04:37:57.370Z,21.90
2019-06-27T04:40:25.791Z,22.00
2019-06-27T04:42:54.236Z,21.90
2019-06-27T04:45:22.682Z,22.00
2019-06-27T04:47:51.111Z,22.00
2019-06-27T04:50:19.520Z,22.20
2019-06-27T04:52:47.964Z,22.10
2019-06-27T04:55:16.366Z,22.00
2019-06-27T04:57:44.821Z,22.00
2019-06-27T05:00:18.966Z,22.00
2019-06-27T05:02:47.422Z,22.10
2019-06-27T05:05:15.834Z,22.20
2019-06-27T05:07:44.254Z,22.20
2019-06-27T05:10:12.977Z,22.10
2019-06-27T05:12:41.629Z,22.30
2019-06-27T05:15:10.143Z,22.40
2019-06-27T05:17:38.593Z,22.30
2019-06-27T05:20:07.169Z,22.40
2019-06-27T05:22:35.586Z,22.50
2019-06-27T05:25:04.216Z,22.60
2019-06-27T05:27:32.655Z,22.50
2019-06-27T05:30:09.517Z,22.70
2019-06-27T05:32:31.318Z,22.80
2019-06-27T05:34:59.743Z,22.90
2019-06-27T05:37:28.194Z,23.00
2019-06-27T05:39:56.978Z,23.10
2019-06-27T05:42:25.410Z,23.20
2019-06-27T05:44:53.855Z,23.30
2019-06-27T05:47:22.286Z,23.50
2019-06-27T05:49:50.689Z,23.50
2019-06-27T05:52:19.127Z,23.60
2019-06-27T05:54:47.581Z,23.70
2019-06-27T05:57:16.012Z,23.80
2019-06-27T05:59:46.064Z,24.00
2019-06-27T06:02:15.482Z,24.00
2019-06-27T06:04:43.991Z,24.20
2019-06-27T06:07:12.519Z,24.20
2019-06-27T06:09:41.004Z,24.30
2019-06-27T06:12:09.455Z,24.40
2019-06-27T06:14:38.892Z,24.60
2019-06-27T06:17:07.371Z,24.40
2019-06-27T06:19:36.791Z,24.30
2019-06-27T06:22:05.270Z,24.30
2019-06-27T06:24:33.706Z,24.40
2019-06-27T06:27:21.462Z,24.40
2019-06-27T06:29:49.900Z,24.40
2019-06-27T06:32:18.327Z,24.50
2019-06-27T06:34:46.857Z,24.60
2019-06-27T06:37:15.318Z,24.60
2019-06-27T06:39:43.748Z,24.70
2019-06-27T06:42:12.166Z,24.90
2019-06-27T06:44:41.153Z,25.00
2019-06-27T06:47:09.566Z,25.20
2019-06-27T06:49:38.018Z,25.40
2019-06-27T06:52:06.510Z,25.60
2019-06-27T06:54:34.942Z,25.80
2019-06-27T06:57:04.019Z,25.90
2019-06-27T06:59:32.432Z,26.00
2019-06-27T07:02:00.867Z,26.10
2019-06-27T07:04:29.291Z,26.00
2019-06-27T07:06:57.787Z,26.00
2019-06-27T07:09:26.303Z,26.10
2019-06-27T07:11:54.743Z,26.10
2019-06-27T07:14:26.884Z,26.20
2019-06-27T07:16:53.577Z,26.30
2019-06-27T07:19:22.034Z,26.50
2019-06-27T07:21:50.522Z,26.50
2019-06-27T07:24:18.953Z,26.50
2019-06-27T07:26:47.388Z,26.60
2019-06-27T07:29:15.814Z,26.70
2019-06-27T07:31:44.244Z,26.80
2019-06-27T07:34:12.693Z,26.80
2019-06-27T07:36:41.195Z,27.00
2019-06-27T07:39:09.676Z,27.10
2019-06-27T07:41:38.154Z,27.10
2019-06-27T07:44:06.603Z,27.10
2019-06-27T07:46:35.111Z,27.10
2019-06-27T07:49:03.609Z,27.20
2019-06-27T07:51:32.032Z,27.40
2019-06-27T07:54:01.404Z,27.30
2019-06-27T07:56:29.851Z,27.20
2019-06-27T07:58:58.284Z,27.40
2019-06-27T08:01:35.195Z,27.40
2019-06-27T08:03:57.188Z,27.30
2019-06-27T08:06:25.640Z,27.30
2019-06-27T08:08:54.042Z,27.30
2019-06-27T08:11:22.471Z,27.40
2019-06-27T08:13:50.908Z,27.60
2019-06-27T08:16:19.335Z,27.80
2019-06-27T08:18:47.795Z,27.90
2019-06-27T08:21:16.220Z,28.10
2019-06-27T08:23:44.672Z,28.30
2019-06-27T08:26:13.089Z,28.20
2019-06-27T08:28:41.501Z,28.20
2019-06-27T08:31:09.948Z,28.20
2019-06-27T08:33:38.378Z,28.30
2019-06-27T08:36:06.798Z,28.30
2019-06-27T08:38:35.234Z,28.50
2019-06-27T08:41:03.779Z,28.60
2019-06-27T08:43:32.355Z,28.60
2019-06-27T08:46:06.820Z,28.50
2019-06-27T08:48:35.275Z,28.50
2019-06-27T08:51:03.803Z,28.60
2019-06-27T08:53:32.233Z,28.60
2019-06-27T08:56:00.725Z,28.60
2019-06-27T08:58:29.145Z,28.70
2019-06-27T09:00:57.574Z,28.70
2019-06-27T09:03:26.098Z,28.80
2019-06-27T09:05:54.544Z,28.80
2019-06-27T09:08:22.956Z,28.60
2019-06-27T09:10:51.394Z,28.70
2019-06-27T09:13:19.816Z,28.80
2019-06-27T09:15:48.265Z,28.90
2019-06-27T09:18:16.692Z,29.00
2019-06-27T09:20:45.802Z,29.00
2019-06-27T09:23:14.233Z,29.00
2019-06-27T09:25:43.251Z,29.00
2019-06-27T09:28:12.106Z,29.10
2019-06-27T09:30:40.885Z,29.20
2019-06-27T09:33:09.382Z,29.20
2019-06-27T09:35:37.817Z,29.20
2019-06-27T09:38:06.316Z,29.00
2019-06-27T09:40:34.795Z,29.10
2019-06-27T09:43:03.236Z,29.20
2019-06-27T09:45:31.651Z,29.30
2019-06-27T09:48:06.523Z,29.30
2019-06-27T09:50:34.937Z,29.40
2019-06-27T09:53:03.378Z,29.50
2019-06-27T09:55:31.786Z,29.40
2019-06-27T09:58:00.241Z,29.50
2019-06-27T10:00:28.788Z,29.60
2019-06-27T10:02:57.213Z,29.70
2019-06-27T10:05:25.666Z,29.70
2019-06-27T10:07:54.133Z,29.60
2019-06-27T10:10:22.736Z,29.50
2019-06-27T10:12:51.150Z,29.50
2019-06-27T10:15:19.824Z,29.70
2019-06-27T10:17:48.239Z,29.90
2019-06-27T10:20:17.091Z,30.00
2019-06-27T10:22:45.545Z,30.10
2019-06-27T10:25:14.100Z,30.10
2019-06-27T10:27:42.529Z,30.10
2019-06-27T10:30:12.744Z,30.30
2019-06-27T10:32:54.352Z,30.40
2019-06-27T10:35:11.576Z,30.30
2019-06-27T10:37:40.006Z,30.30
2019-06-27T10:40:09.293Z,30.40
2019-06-27T10:42:37.717Z,30.50
2019-06-27T10:45:07.573Z,30.60
2019-06-27T10:47:36.024Z,30.60
2019-06-27T10:50:08.466Z,30.60
2019-06-27T10:52:36.909Z,30.80
2019-06-27T10:55:05.907Z,31.00
2019-06-27T10:57:35.187Z,31.10
2019-06-27T11:00:04.985Z,31.10
2019-06-27T11:02:33.599Z,31.10
2019-06-27T11:05:02.026Z,31.20
2019-06-27T11:07:30.475Z,31.20
2019-06-27T11:09:58.889Z,31.20
2019-06-27T11:12:27.330Z,31.20
2019-06-27T11:14:59.591Z,31.30
2019-06-27T11:17:26.161Z,31.30
2019-06-27T11:19:54.589Z,31.40
2019-06-27T11:22:23.017Z,31.30
2019-06-27T11:24:51.442Z,31.20
2019-06-27T11:27:19.887Z,31.30
2019-06-27T11:29:48.324Z,31.40
2019-06-27T11:32:16.745Z,31.30
2019-06-27T11:34:45.185Z,31.30
2019-06-27T11:37:13.622Z,31.60
2019-06-27T11:39:42.037Z,31.70
2019-06-27T11:42:10.483Z,31.70
2019-06-27T11:44:38.928Z,31.70
2019-06-27T11:47:07.353Z,31.70
2019-06-27T11:49:35.794Z,31.80
2019-06-27T11:52:04.208Z,31.80
2019-06-27T11:54:32.616Z,31.80
2019-06-27T11:57:01.049Z,31.70
2019-06-27T11:59:29.500Z,31.80
2019-06-27T12:01:58.007Z,31.80
2019-06-27T12:04:26.435Z,31.70
2019-06-27T12:06:54.871Z,31.80
2019-06-27T12:09:23.318Z,31.60
2019-06-27T12:11:51.753Z,31.90
2019-06-27T12:14:20.178Z,32.00
2019-06-27T12:16:48.609Z,31.90
2019-06-27T12:19:17.062Z,32.10
2019-06-27T12:21:45.483Z,32.10
2019-06-27T12:24:13.904Z,32.00
2019-06-27T12:26:42.341Z,32.00
2019-06-27T12:29:10.787Z,32.00
2019-06-27T12:31:39.211Z,32.10
2019-06-27T12:34:07.936Z,32.10
2019-06-27T12:36:36.529Z,32.20
2019-06-27T12:39:05.336Z,32.30
2019-06-27T12:41:33.780Z,32.40
2019-06-27T12:44:02.234Z,32.10
2019-06-27T12:46:30.695Z,32.30
2019-06-27T12:48:59.192Z,32.50
2019-06-27T12:51:27.982Z,32.50
2019-06-27T12:53:56.412Z,32.40
2019-06-27T12:56:25.509Z,32.60
2019-06-27T12:58:54.236Z,32.70
2019-06-27T13:01:22.671Z,32.80
2019-06-27T13:03:51.101Z,32.70
2019-06-27T13:06:19.541Z,32.80
2019-06-27T13:08:47.981Z,32.70
2019-06-27T13:11:16.394Z,32.90
2019-06-27T13:13:44.839Z,32.80
2019-06-27T13:16:13.273Z,32.80
2019-06-27T13:18:41.706Z,32.60
2019-06-27T13:21:10.269Z,32.90
2019-06-27T13:23:38.814Z,32.70
2019-06-27T13:26:07.274Z,32.90
2019-06-27T13:28:35.705Z,33.20
2019-06-27T13:31:04.195Z,33.30
2019-06-27T13:33:32.628Z,33.30
2019-06-27T13:36:01.059Z,33.20
2019-06-27T13:38:29.520Z,33.20
2019-06-27T13:41:01.878Z,33.40
2019-06-27T13:43:28.087Z,33.60
2019-06-27T13:45:56.513Z,33.50
2019-06-27T13:48:24.985Z,33.50
2019-06-27T13:50:56.630Z,33.40
2019-06-27T13:53:23.884Z,33.60
2019-06-27T13:55:52.400Z,33.40
2019-06-27T13:58:20.898Z,33.60
2019-06-27T14:00:49.471Z,33.80
2019-06-27T14:03:17.962Z,33.80
2019-06-27T14:05:46.404Z,33.70
2019-06-27T14:08:14.847Z,33.60
2019-06-27T14:10:43.262Z,33.70
2019-06-27T14:13:11.703Z,33.70
2019-06-27T14:15:40.136Z,33.80
2019-06-27T14:18:09.149Z,33.90
2019-06-27T14:20:37.622Z,34.00
2019-06-27T14:23:06.075Z,34.00
2019-06-27T14:25:34.472Z,34.00
2019-06-27T14:28:02.961Z,34.10
2019-06-27T14:30:31.383Z,34.20
2019-06-27T14:33:00.068Z,34.30
2019-06-27T14:35:28.496Z,34.30
2019-06-27T14:37:56.912Z,34.30
2019-06-27T14:40:25.495Z,34.20
2019-06-27T14:42:54.718Z,34.30
2019-06-27T14:45:23.314Z,34.40
2019-06-27T14:47:51.740Z,34.30
2019-06-27T14:50:20.231Z,34.30
2019-06-27T14:52:48.671Z,34.50
2019-06-27T14:55:17.336Z,34.60
2019-06-27T14:57:45.758Z,34.60
2019-06-27T15:00:15.598Z,34.60
2019-06-27T15:02:44.021Z,34.60
2019-06-27T15:05:13.425Z,34.50
2019-06-27T15:07:41.878Z,34.50
2019-06-27T15:10:11.073Z,34.60
2019-06-27T15:12:55.814Z,34.70
2019-06-27T15:15:12.715Z,34.70
2019-06-27T15:17:41.146Z,34.60
2019-06-27T15:20:09.805Z,34.70
2019-06-27T15:22:38.335Z,34.60
2019-06-27T15:25:07.889Z,34.50
2019-06-27T15:27:36.337Z,34.40
2019-06-27T15:30:07.147Z,34.20
2019-06-27T15:32:35.650Z,34.10
2019-06-27T15:35:07.361Z,34.20
2019-06-27T15:37:35.969Z,34.40
2019-06-27T15:40:05.741Z,34.30
2019-06-27T15:42:38.614Z,34.20
2019-06-27T15:45:07.304Z,34.10
2019-06-27T15:47:35.736Z,34.10
2019-06-27T15:50:06.647Z,34.10
2019-06-27T15:52:35.143Z,33.80
2019-06-27T15:55:04.524Z,33.70
2019-06-27T15:57:38.475Z,33.50
2019-06-27T16:00:09.754Z,33.20
2019-06-27T16:02:39.358Z,32.80
2019-06-27T16:05:08.259Z,32.60
2019-06-27T16:07:45.664Z,32.40
2019-06-27T16:10:14.970Z,32.10
2019-06-27T16:12:45.102Z,31.70
2019-06-27T16:15:14.375Z,31.50
2019-06-27T16:17:44.301Z,31.30
2019-06-27T16:20:13.763Z,31.20
2019-06-27T16:22:42.299Z,31.10
2019-06-27T16:25:11.090Z,30.80
2019-06-27T16:27:39.602Z,30.80
2019-06-27T16:30:08.655Z,30.70
2019-06-27T16:32:37.110Z,30.50
2019-06-27T16:35:06.371Z,30.40
2019-06-27T16:37:34.813Z,30.40
2019-06-27T16:40:05.284Z,30.30
2019-06-27T16:42:33.705Z,30.10
2019-06-27T16:45:02.157Z,30.10
2019-06-27T16:47:30.610Z,30.10
2019-06-27T16:49:59.026Z,30.00
2019-06-27T16:52:27.468Z,29.90
2019-06-27T16:54:55.889Z,29.70
2019-06-27T16:57:24.723Z,29.60
2019-06-27T16:59:53.172Z,29.50
2019-06-27T17:02:21.650Z,29.50
2019-06-27T17:04:50.144Z,29.50
2019-06-27T17:07:18.589Z,29.40
2019-06-27T17:09:47.042Z,29.40
2019-06-27T17:12:15.469Z,29.20
2019-06-27T17:14:43.934Z,29.20
2019-06-27T17:17:12.354Z,29.20
2019-06-27T17:19:40.821Z,29.20
2019-06-27T17:22:09.263Z,29.20
2019-06-27T17:24:37.719Z,29.10
2019-06-27T17:27:06.203Z,29.10
2019-06-27T17:29:34.651Z,29.00
2019-06-27T17:32:06.290Z,28.90
2019-06-27T17:34:33.402Z,28.80
2019-06-27T17:37:01.822Z,28.70
2019-06-27T17:39:30.290Z,28.70
2019-06-27T17:42:00.214Z,28.70
2019-06-27T17:44:28.620Z,28.60
2019-06-27T17:46:57.044Z,28.60
2019-06-27T17:49:25.488Z,28.50
2019-06-27T17:51:54.007Z,28.40
2019-06-27T17:54:22.422Z,28.40
2019-06-27T17:56:50.879Z,28.30
2019-06-27T17:59:25.452Z,28.20
2019-06-27T18:01:53.890Z,28.20
2019-06-27T18:04:22.354Z,28.20
2019-06-27T18:06:50.788Z,28.10
2019-06-27T18:09:19.252Z,28.10
2019-06-27T18:11:48.705Z,28.00
2019-06-27T18:14:17.177Z,28.00
2019-06-27T18:16:45.614Z,27.90
2019-06-27T18:19:14.075Z,27.90
2019-06-27T18:21:42.497Z,27.80
2019-06-27T18:24:10.929Z,27.80
2019-06-27T18:26:39.382Z,27.80
2019-06-27T18:29:07.875Z,27.90
2019-06-27T18:31:36.302Z,27.80
2019-06-27T18:34:04.899Z,27.80
2019-06-27T18:36:33.335Z,27.70
2019-06-27T18:39:01.747Z,27.60
2019-06-27T18:41:30.147Z,27.50
2019-06-27T18:43:58.586Z,27.50
2019-06-27T18:46:26.985Z,27.40
2019-06-27T18:48:55.453Z,27.20
2019-06-27T18:51:23.871Z,27.10
2019-06-27T18:53:52.386Z,27.00
2019-06-27T18:56:20.838Z,26.90
2019-06-27T18:58:49.272Z,26.70
2019-06-27T19:01:17.759Z,26.70
2019-06-27T19:03:47.696Z,26.60
2019-06-27T19:06:16.084Z,26.50
2019-06-27T19:08:44.561Z,26.30
2019-06-27T19:11:13.964Z,26.20
2019-06-27T19:13:42.353Z,26.10
2019-06-27T19:16:10.868Z,26.00
2019-06-27T19:18:46.938Z,26.00
2019-06-27T19:21:20.696Z,26.00
2019-06-27T19:23:56.246Z,25.80
2019-06-27T19:26:24.676Z,25.70
2019-06-27T19:28:53.089Z,25.60
2019-06-27T19:31:21.512Z,25.50
2019-06-27T19:33:49.942Z,25.40
2019-06-27T19:36:18.393Z,25.20
2019-06-27T19:38:48.609Z,25.10
2019-06-27T19:41:17.018Z,25.00
2019-06-27T19:43:45.473Z,24.90
2019-06-27T19:46:13.900Z,24.90
2019-06-27T19:48:45.502Z,24.80
2019-06-27T19:51:12.549Z,24.60
2019-06-27T19:53:40.968Z,24.60
2019-06-27T19:56:09.397Z,24.50
2019-06-27T19:58:37.885Z,24.40
2019-06-27T20:01:06.325Z,24.30
2019-06-27T20:03:34.777Z,24.30
2019-06-27T20:06:03.251Z,24.20
2019-06-27T20:08:31.726Z,24.20
2019-06-27T20:11:00.147Z,24.30
2019-06-27T20:13:28.559Z,24.10
2019-06-27T20:15:57.083Z,24.10
2019-06-27T20:18:25.507Z,24.00
2019-06-27T20:20:53.993Z,24.00
2019-06-27T20:23:22.415Z,24.00
2019-06-27T20:25:50.844Z,23.90
2019-06-27T20:28:19.369Z,23.80
2019-06-27T20:30:47.841Z,23.70
2019-06-27T20:33:16.282Z,23.70
2019-06-27T20:35:44.898Z,23.60
2019-06-27T20:38:13.468Z,23.60
2019-06-27T20:40:43.011Z,23.50
2019-06-27T20:43:11.496Z,23.50
2019-06-27T20:45:40.162Z,23.40
2019-06-27T20:48:08.638Z,23.40
2019-06-27T20:50:37.127Z,23.30
2019-06-27T20:53:05.620Z,23.20
2019-06-27T20:55:34.205Z,23.20
2019-06-27T20:58:02.692Z,23.20
2019-06-27T21:00:31.185Z,23.10
2019-06-27T21:02:59.665Z,23.10
2019-06-27T21:05:28.096Z,23.00
2019-06-27T21:07:56.533Z,23.00
2019-06-27T21:10:25.259Z,23.00
2019-06-27T21:12:53.699Z,22.90
2019-06-27T21:15:22.464Z,22.90
2019-06-27T21:17:50.900Z,22.90
2019-06-27T21:20:19.404Z,22.90
2019-06-27T21:22:47.814Z,22.80
2019-06-27T21:25:17.765Z,22.80
2019-06-27T21:27:46.201Z,22.80
2019-06-27T21:30:15.492Z,22.90
2019-06-27T21:32:44.234Z,22.90
2019-06-27T21:35:12.729Z,23.00
2019-06-27T21:37:41.146Z,22.80
2019-06-27T21:40:10.019Z,22.80
2019-06-27T21:42:38.616Z,22.70
2019-06-27T21:45:07.664Z,22.70
2019-06-27T21:47:36.623Z,22.60
2019-06-27T21:50:08.798Z,22.70
2019-06-27T21:52:37.487Z,22.60
2019-06-27T21:55:07.431Z,22.70
2019-06-27T21:57:36.427Z,22.60
2019-06-27T22:00:09.263Z,22.50
2019-06-27T22:02:37.939Z,22.40
2019-06-27T22:05:07.456Z,22.40
2019-06-27T22:07:36.444Z,22.30
2019-06-27T22:10:07.450Z,22.20
2019-06-27T22:12:36.073Z,22.40
2019-06-27T22:15:07.464Z,22.30
2019-06-27T22:17:36.226Z,22.20
2019-06-27T22:20:14.862Z,22.10
2019-06-27T22:22:36.372Z,22.10
2019-06-27T22:25:06.883Z,22.00
2019-06-27T22:27:35.305Z,22.00
2019-06-27T22:30:05.657Z,21.90
2019-06-27T22:32:34.094Z,21.90
2019-06-27T22:35:02.566Z,22.00
2019-06-27T22:37:30.362Z,21.90
2019-06-27T22:40:16.648Z,22.00
2019-06-27T22:43:04.407Z,21.90
2019-06-27T22:45:50.880Z,21.90
2019-06-27T22:48:20.374Z,21.90
2019-06-27T22:50:51.324Z,21.70
2019-06-27T22:53:22.179Z,21.80
2019-06-27T22:55:51.139Z,21.70
2019-06-27T22:58:19.565Z,21.80
2019-06-27T23:00:48.109Z,21.70
2019-06-27T23:03:16.552Z,21.80
2019-06-27T23:05:45.003Z,21.80
2019-06-27T23:08:13.408Z,21.70
2019-06-27T23:10:41.879Z,21.90
2019-06-27T23:13:10.587Z,21.80
2019-06-27T23:15:39.010Z,21.80
2019-06-27T23:18:07.442Z,21.70
2019-06-27T23:20:35.886Z,21.70
2019-06-27T23:23:04.412Z,21.80
2019-06-27T23:25:32.843Z,21.80
2019-06-27T23:28:01.303Z,21.70
2019-06-27T23:30:29.722Z,21.70
2019-06-27T23:32:58.193Z,21.60
2019-06-27T23:35:27.251Z,21.70
2019-06-27T23:37:55.694Z,21.60
2019-06-27T23:40:24.204Z,21.50
2019-06-27T23:42:52.660Z,21.60
2019-06-27T23:45:21.091Z,21.60
2019-06-27T23:47:49.533Z,21.70
2019-06-27T23:50:17.977Z,21.60
2019-06-27T23:52:46.471Z,21.60
2019-06-27T23:55:15.015Z,21.70
2019-06-27T23:57:43.439Z,21.70
